createdAt,value
2019-03-18T00:02:24.597Z,2.08
2019-03-18T00:04:53.722Z,2.30
2019-03-18T00:07:22.511Z,2.30
2019-03-18T00:09:51.436Z,2.72
2019-03-18T00:12:21.982Z,2.30
2019-03-18T00:15:01.089Z,2.42
2019-03-18T00:17:23.323Z,2.55
2019-03-18T00:19:52.409Z,1.98
2019-03-18T00:22:24.757Z,1.95
2019-03-18T00:24:54.204Z,1.95
2019-03-18T00:27:23.309Z,2.17
2019-03-18T00:29:52.420Z,2.05
2019-03-18T00:32:21.415Z,2.40
2019-03-18T00:34:50.398Z,2.08
2019-03-18T00:37:19.433Z,2.20
2019-03-18T00:39:48.347Z,2.20
2019-03-18T00:42:17.484Z,2.50
2019-03-18T00:44:46.523Z,3.12
2019-03-18T00:47:15.819Z,2.45
2019-03-18T00:49:44.694Z,2.30
2019-03-18T00:52:16.564Z,2.10
2019-03-18T00:54:45.433Z,2.00
2019-03-18T00:57:17.950Z,1.85
2019-03-18T00:59:47.557Z,2.00
2019-03-18T01:02:16.324Z,2.40
2019-03-18T01:04:45.328Z,2.20
2019-03-18T01:07:15.648Z,2.00
2019-03-18T01:09:44.733Z,2.35
2019-03-18T01:12:13.766Z,2.00
2019-03-18T01:14:42.768Z,2.30
2019-03-18T01:17:11.661Z,2.35
2019-03-18T01:19:40.526Z,3.08
2019-03-18T01:22:09.844Z,7.78
2019-03-18T01:24:39.304Z,5.83
2019-03-18T01:27:08.205Z,4.17
2019-03-18T01:29:37.229Z,3.00
2019-03-18T01:32:06.840Z,2.72
2019-03-18T01:34:35.699Z,1.95
2019-03-18T01:37:04.981Z,1.90
2019-03-18T01:39:34.501Z,2.35
2019-03-18T01:42:03.447Z,5.87
2019-03-18T01:44:32.766Z,2.10
2019-03-18T01:47:03.510Z,2.90
2019-03-18T01:49:32.447Z,2.55
2019-03-18T01:52:01.581Z,2.17
2019-03-18T01:54:30.449Z,2.08
2019-03-18T01:56:59.597Z,1.87
2019-03-18T01:59:28.402Z,2.98
2019-03-18T02:01:57.654Z,2.30
2019-03-18T02:04:26.822Z,1.80
2019-03-18T02:06:55.928Z,2.25
2019-03-18T02:09:24.745Z,3.00
2019-03-18T02:11:54.890Z,2.58
2019-03-18T02:14:23.744Z,2.60
2019-03-18T02:16:55.706Z,3.22
2019-03-18T02:19:24.736Z,2.47
2019-03-18T02:21:53.671Z,2.50
2019-03-18T02:24:22.665Z,2.00
2019-03-18T02:26:51.519Z,2.25
2019-03-18T02:29:20.460Z,2.37
2019-03-18T02:31:49.313Z,3.05
2019-03-18T02:34:18.555Z,2.37
2019-03-18T02:36:47.453Z,2.52
2019-03-18T02:39:16.528Z,2.12
2019-03-18T02:41:45.355Z,2.20
2019-03-18T02:44:14.284Z,2.33
2019-03-18T02:46:43.345Z,2.15
2019-03-18T02:49:12.242Z,2.40
2019-03-18T02:51:41.057Z,2.22
2019-03-18T02:54:10.096Z,2.10
2019-03-18T02:56:39.018Z,1.85
2019-03-18T02:59:08.207Z,2.00
2019-03-18T03:01:37.174Z,1.90
2019-03-18T03:04:06.169Z,1.90
2019-03-18T03:06:35.403Z,2.02
2019-03-18T03:09:05.931Z,2.25
2019-03-18T03:11:37.583Z,1.70
2019-03-18T03:14:06.413Z,1.80
2019-03-18T03:16:35.261Z,2.47
2019-03-18T03:19:04.766Z,2.20
2019-03-18T03:21:34.049Z,2.20
2019-03-18T03:24:03.117Z,2.65
2019-03-18T03:26:32.258Z,2.02
2019-03-18T03:29:01.006Z,1.95
2019-03-18T03:31:31.383Z,2.00
2019-03-18T03:34:00.297Z,1.62
2019-03-18T03:36:31.518Z,1.90
2019-03-18T03:39:00.716Z,1.98
2019-03-18T03:41:29.520Z,2.10
2019-03-18T03:43:58.405Z,2.02
2019-03-18T03:46:42.379Z,2.00
2019-03-18T03:48:58.319Z,2.25
2019-03-18T03:51:27.150Z,2.20
2019-03-18T03:53:56.043Z,2.10
2019-03-18T03:56:25.150Z,2.27
2019-03-18T03:58:54.085Z,2.35
2019-03-18T04:01:23.005Z,2.40
2019-03-18T04:03:51.901Z,2.72
2019-03-18T04:06:20.839Z,2.35
2019-03-18T04:08:49.958Z,2.25
2019-03-18T04:11:18.887Z,2.62
2019-03-18T04:13:47.860Z,2.52
2019-03-18T04:16:16.785Z,2.80
2019-03-18T04:18:46.046Z,2.60
2019-03-18T04:21:14.869Z,2.67
2019-03-18T04:23:43.876Z,2.90
2019-03-18T04:26:13.075Z,2.70
2019-03-18T04:28:42.017Z,2.95
2019-03-18T04:31:11.532Z,3.20
2019-03-18T04:33:40.494Z,2.92
2019-03-18T04:36:09.475Z,2.67
2019-03-18T04:38:38.427Z,2.72
2019-03-18T04:41:07.350Z,2.50
2019-03-18T04:43:36.300Z,2.65
2019-03-18T04:46:05.367Z,3.10
2019-03-18T04:48:34.310Z,2.90
2019-03-18T04:51:05.847Z,2.92
2019-03-18T04:53:34.771Z,2.42
2019-03-18T04:56:06.766Z,3.20
2019-03-18T04:58:35.984Z,2.57
2019-03-18T05:01:05.102Z,2.62
2019-03-18T05:03:33.928Z,2.80
2019-03-18T05:06:04.664Z,3.03
2019-03-18T05:08:33.843Z,3.10
2019-03-18T05:11:02.732Z,3.50
2019-03-18T05:13:31.584Z,3.10
2019-03-18T05:16:00.454Z,3.50
2019-03-18T05:18:29.245Z,2.83
2019-03-18T05:20:58.131Z,2.90
2019-03-18T05:23:26.996Z,2.40
2019-03-18T05:25:55.776Z,2.80
2019-03-18T05:28:24.613Z,2.50
2019-03-18T05:30:53.451Z,3.07
2019-03-18T05:33:22.351Z,2.97
2019-03-18T05:35:51.315Z,2.33
2019-03-18T05:38:20.317Z,2.53
2019-03-18T05:40:49.234Z,2.97
2019-03-18T05:43:18.211Z,2.83
2019-03-18T05:45:47.121Z,2.93
2019-03-18T05:48:16.087Z,2.80
2019-03-18T05:50:45.028Z,3.30
2019-03-18T05:53:13.831Z,3.53
2019-03-18T05:55:45.245Z,3.57
2019-03-18T05:58:14.316Z,3.97
2019-03-18T06:00:43.367Z,2.93
2019-03-18T06:03:20.013Z,3.40
2019-03-18T06:05:49.848Z,3.27
2019-03-18T06:08:21.385Z,3.20
2019-03-18T06:10:56.600Z,3.33
2019-03-18T06:13:28.280Z,3.20
2019-03-18T06:15:59.810Z,3.63
2019-03-18T06:18:32.170Z,3.10
2019-03-18T06:21:02.342Z,3.40
2019-03-18T06:23:53.135Z,3.67
2019-03-18T06:26:29.352Z,3.87
2019-03-18T06:29:00.194Z,4.60
2019-03-18T06:31:29.250Z,3.80
2019-03-18T06:34:00.483Z,3.63
2019-03-18T06:36:36.141Z,4.27
2019-03-18T06:39:11.355Z,4.07
2019-03-18T06:41:42.348Z,3.87
2019-03-18T06:44:14.099Z,3.70
2019-03-18T06:46:45.832Z,4.13
2019-03-18T06:49:19.354Z,4.43
2019-03-18T06:51:51.426Z,4.40
2019-03-18T06:54:21.675Z,5.00
2019-03-18T06:57:01.449Z,4.63
2019-03-18T06:59:32.943Z,4.07
2019-03-18T07:04:55.739Z,4.57
2019-03-18T07:07:32.272Z,9.50
2019-03-18T07:10:08.939Z,6.22
2019-03-18T07:12:38.556Z,4.27
2019-03-18T07:15:11.254Z,4.80
2019-03-18T07:17:51.516Z,4.63
2019-03-18T07:20:23.430Z,5.15
2019-03-18T07:22:55.741Z,4.30
2019-03-18T07:28:21.009Z,3.63
2019-03-18T07:30:50.574Z,4.40
2019-03-18T07:33:21.976Z,3.80
2019-03-18T07:35:50.931Z,4.87
2019-03-18T07:38:20.584Z,7.10
2019-03-18T07:40:51.866Z,7.63
2019-03-18T07:43:27.769Z,4.73
2019-03-18T07:45:58.674Z,4.00
2019-03-18T07:48:31.145Z,3.83
2019-03-18T07:51:01.101Z,4.27
2019-03-18T07:53:31.391Z,5.30
2019-03-18T07:56:02.758Z,4.40
2019-03-18T07:58:40.612Z,5.10
2019-03-18T08:01:12.744Z,3.83
2019-03-18T08:03:43.617Z,3.87
2019-03-18T08:06:15.844Z,3.57
2019-03-18T08:08:45.644Z,3.60
2019-03-18T08:11:16.565Z,3.83
2019-03-18T08:13:49.790Z,3.23
2019-03-18T08:16:20.629Z,2.93
2019-03-18T08:19:00.341Z,3.00
2019-03-18T08:21:37.248Z,3.20
2019-03-18T08:24:10.911Z,3.03
2019-03-18T08:26:41.316Z,2.80
2019-03-18T08:29:10.458Z,2.70
2019-03-18T08:31:39.556Z,2.90
2019-03-18T08:34:11.922Z,2.87
2019-03-18T08:36:42.401Z,2.60
2019-03-18T08:39:13.733Z,3.40
2019-03-18T08:41:49.840Z,3.30
2019-03-18T08:44:30.036Z,3.07
2019-03-18T08:46:54.755Z,2.87
2019-03-18T08:49:30.100Z,3.27
2019-03-18T08:52:03.393Z,3.27
2019-03-18T08:54:37.250Z,3.77
2019-03-18T08:57:12.238Z,3.37
2019-03-18T08:59:45.520Z,3.67
2019-03-18T09:02:18.345Z,3.43
2019-03-18T09:04:55.084Z,3.95
2019-03-18T09:07:28.079Z,3.20
2019-03-18T09:10:01.424Z,3.30
2019-03-18T09:12:32.505Z,3.00
2019-03-18T09:15:04.150Z,2.77
2019-03-18T09:17:38.521Z,3.07
2019-03-18T09:20:14.539Z,2.60
2019-03-18T09:22:50.147Z,2.57
2019-03-18T09:25:23.337Z,3.10
2019-03-18T09:27:57.465Z,3.03
2019-03-18T09:30:29.359Z,2.80
2019-03-18T09:33:00.177Z,3.47
2019-03-18T09:35:52.472Z,3.07
2019-03-18T09:38:23.946Z,3.80
2019-03-18T09:40:56.949Z,2.67
2019-03-18T09:43:30.096Z,2.80
2019-03-18T09:46:04.833Z,2.63
2019-03-18T09:48:39.055Z,2.73
2019-03-18T09:51:20.244Z,2.63
2019-03-18T09:53:54.101Z,2.33
2019-03-18T09:56:30.420Z,2.57
2019-03-18T09:58:59.754Z,2.67
2019-03-18T10:01:28.940Z,2.70
2019-03-18T10:03:58.100Z,2.57
2019-03-18T10:06:30.502Z,3.03
2019-03-18T10:09:04.399Z,2.72
2019-03-18T10:11:42.921Z,2.50
2019-03-18T10:14:19.703Z,2.40
2019-03-18T10:16:53.995Z,2.50
2019-03-18T10:19:33.811Z,2.80
2019-03-18T10:22:14.865Z,2.70
2019-03-18T10:24:39.581Z,3.87
2019-03-18T10:27:37.709Z,2.37
2019-03-18T10:33:12.656Z,2.10
2019-03-18T10:35:47.600Z,2.00
2019-03-18T10:38:24.740Z,2.03
2019-03-18T10:40:56.108Z,2.47
2019-03-18T10:43:25.595Z,2.40
2019-03-18T10:45:59.510Z,2.47
2019-03-18T10:48:33.354Z,2.53
2019-03-18T10:51:12.037Z,1.90
2019-03-18T10:53:49.439Z,1.80
2019-03-18T10:56:26.338Z,2.00
2019-03-18T10:59:03.095Z,1.97
2019-03-18T11:01:34.197Z,1.90
2019-03-18T11:04:03.635Z,2.00
2019-03-18T11:06:47.525Z,1.63
2019-03-18T11:09:19.372Z,2.10
2019-03-18T11:11:53.612Z,1.80
2019-03-18T11:14:29.061Z,1.50
2019-03-18T11:17:00.478Z,1.73
2019-03-18T11:19:33.508Z,1.90
2019-03-18T11:23:02.652Z,2.10
2019-03-18T11:25:35.273Z,2.65
2019-03-18T11:28:59.945Z,1.90
2019-03-18T11:31:35.364Z,2.47
2019-03-18T11:41:05.757Z,2.67
2019-03-18T11:43:39.199Z,2.50
2019-03-18T11:46:12.497Z,2.10
2019-03-18T11:48:47.599Z,1.90
2019-03-18T11:51:32.690Z,1.93
2019-03-18T11:54:09.108Z,1.43
2019-03-18T11:57:15.096Z,1.63
2019-03-18T11:59:49.866Z,1.90
2019-03-18T12:02:27.824Z,2.20
2019-03-18T12:04:57.656Z,1.95
2019-03-18T12:14:47.381Z,1.27
2019-03-18T12:17:16.956Z,1.40
2019-03-18T12:20:25.416Z,1.50
2019-03-18T12:22:57.082Z,1.47
2019-03-18T12:32:32.683Z,1.33
2019-03-18T12:35:07.660Z,1.40
2019-03-18T12:38:14.418Z,1.27
2019-03-18T12:40:44.947Z,1.40
2019-03-18T12:50:54.486Z,1.70
2019-03-18T12:53:10.440Z,1.60
2019-03-18T12:56:26.426Z,1.77
2019-03-18T12:58:56.925Z,2.08
2019-03-18T13:01:30.359Z,2.00
2019-03-18T13:04:06.664Z,1.93
2019-03-18T13:07:20.174Z,1.67
2019-03-18T13:10:01.337Z,1.70
2019-03-18T13:12:59.252Z,1.50
2019-03-18T13:15:39.298Z,1.90
2019-03-18T13:18:44.909Z,1.70
2019-03-18T13:21:17.078Z,2.20
2019-03-18T13:24:40.312Z,1.43
2019-03-18T13:27:18.389Z,1.87
2019-03-18T13:33:31.292Z,1.50
2019-03-18T13:36:45.612Z,1.43
2019-03-18T13:39:15.052Z,1.80
2019-03-18T13:42:32.707Z,2.17
2019-03-18T13:45:09.917Z,2.50
2019-03-18T13:54:44.286Z,2.13
2019-03-18T13:57:24.207Z,2.23
2019-03-18T14:00:49.828Z,2.30
2019-03-18T14:03:30.102Z,2.03
2019-03-18T14:06:35.686Z,1.50
2019-03-18T14:09:12.294Z,2.00
2019-03-18T14:12:25.433Z,1.90
2019-03-18T14:14:57.802Z,2.33
2019-03-18T14:18:13.305Z,2.20
2019-03-18T14:21:00.888Z,2.10
2019-03-18T14:24:10.666Z,1.90
2019-03-18T14:26:55.841Z,1.93
2019-03-18T14:29:47.333Z,1.97
2019-03-18T14:32:25.637Z,2.07
2019-03-18T14:34:56.156Z,2.00
2019-03-18T14:37:48.855Z,2.63
2019-03-18T14:40:21.484Z,1.50
2019-03-18T14:50:11.079Z,2.00
2019-03-18T14:52:49.713Z,1.37
2019-03-18T14:56:14.989Z,1.50
2019-03-18T14:58:47.302Z,1.13
2019-03-18T15:01:51.093Z,1.47
2019-03-18T15:04:29.372Z,1.47
2019-03-18T15:07:50.180Z,1.43
2019-03-18T15:10:33.193Z,2.00
2019-03-18T15:14:02.970Z,1.40
2019-03-18T15:16:33.816Z,1.20
2019-03-18T15:19:56.447Z,1.60
2019-03-18T15:22:30.098Z,1.83
2019-03-18T15:25:42.104Z,1.70
2019-03-18T15:28:17.621Z,1.43
2019-03-18T15:47:49.870Z,1.30
2019-03-18T15:50:25.589Z,1.50
2019-03-18T16:00:09.776Z,1.40
2019-03-18T16:02:44.432Z,1.57
2019-03-18T16:05:59.780Z,1.70
2019-03-18T16:08:34.102Z,1.63
2019-03-18T16:11:24.284Z,1.80
2019-03-18T16:14:04.250Z,1.50
2019-03-18T16:17:16.445Z,1.37
2019-03-18T16:19:48.645Z,1.40
2019-03-18T16:22:23.767Z,1.40
2019-03-18T16:24:55.125Z,1.57
2019-03-18T16:27:42.290Z,1.40
2019-03-18T16:30:12.400Z,1.50
2019-03-18T16:33:17.478Z,1.63
2019-03-18T16:35:48.146Z,1.60
2019-03-18T16:38:34.445Z,1.83
2019-03-18T16:41:06.568Z,1.83
2019-03-18T16:44:22.531Z,1.80
2019-03-18T16:46:55.595Z,1.40
2019-03-18T16:49:35.607Z,1.83
2019-03-18T16:52:07.428Z,1.40
2019-03-18T16:55:15.175Z,1.77
2019-03-18T16:57:44.313Z,2.23
2019-03-18T17:00:45.241Z,1.87
2019-03-18T17:03:19.094Z,1.60
2019-03-18T17:06:21.041Z,1.77
2019-03-18T17:08:50.219Z,1.50
2019-03-18T17:12:00.091Z,1.60
2019-03-18T17:14:37.866Z,1.93
2019-03-18T17:18:01.293Z,1.37
2019-03-18T17:20:33.523Z,1.77
2019-03-18T17:23:27.163Z,1.60
2019-03-18T17:25:57.024Z,2.13
2019-03-18T17:29:09.126Z,1.70
2019-03-18T17:31:47.170Z,1.80
2019-03-18T17:34:55.409Z,2.10
2019-03-18T17:37:28.756Z,2.00
2019-03-18T17:40:09.116Z,2.10
2019-03-18T17:42:39.616Z,3.83
2019-03-18T17:46:00.206Z,3.97
2019-03-18T17:48:32.088Z,2.67
2019-03-18T17:51:46.156Z,2.87
2019-03-18T17:54:26.803Z,2.10
2019-03-18T17:57:30.409Z,2.60
2019-03-18T18:00:16.985Z,1.90
2019-03-18T18:03:12.771Z,2.10
2019-03-18T18:05:51.675Z,2.53
2019-03-18T18:08:57.299Z,2.23
2019-03-18T18:11:30.331Z,2.20
2019-03-18T18:14:19.438Z,2.10
2019-03-18T18:16:52.241Z,2.20
2019-03-18T18:19:54.575Z,2.03
2019-03-18T18:22:23.785Z,2.10
2019-03-18T18:25:40.347Z,2.33
2019-03-18T18:28:12.377Z,2.30
2019-03-18T18:31:09.843Z,2.20
2019-03-18T18:33:46.860Z,2.20
2019-03-18T18:36:31.981Z,2.60
2019-03-18T18:39:09.436Z,3.47
2019-03-18T18:42:19.074Z,3.60
2019-03-18T18:44:50.411Z,2.77
2019-03-18T18:47:56.489Z,3.97
2019-03-18T18:50:26.188Z,3.80
2019-03-18T18:53:27.196Z,3.50
2019-03-18T18:55:58.329Z,3.83
2019-03-18T18:58:56.025Z,4.87
2019-03-18T19:01:22.015Z,3.60
2019-03-18T19:04:17.513Z,3.97
2019-03-18T19:06:52.812Z,3.93
2019-03-18T19:09:47.660Z,4.13
2019-03-18T19:12:19.225Z,3.47
2019-03-18T19:15:44.085Z,2.77
2019-03-18T19:18:16.571Z,3.10
2019-03-18T19:21:16.015Z,3.10
2019-03-18T19:23:50.549Z,3.13
2019-03-18T19:26:54.230Z,3.43
2019-03-18T19:29:27.064Z,4.30
2019-03-18T19:32:27.285Z,4.40
2019-03-18T19:41:04.750Z,4.63
2019-03-18T19:43:36.769Z,4.63
2019-03-18T19:46:50.301Z,5.40
2019-03-18T19:49:31.417Z,4.73
2019-03-18T19:52:26.206Z,4.20
2019-03-18T19:55:12.581Z,5.37
2019-03-18T19:58:15.734Z,5.57
2019-03-18T20:00:47.213Z,4.57
2019-03-18T20:03:21.463Z,4.90
2019-03-18T20:05:58.097Z,3.73
2019-03-18T20:08:40.439Z,4.70
2019-03-18T20:11:11.992Z,3.73
2019-03-18T20:13:42.115Z,3.90
2019-03-18T20:16:33.569Z,2.90
2019-03-18T20:19:09.406Z,3.20
2019-03-18T20:24:47.863Z,3.90
2019-03-18T20:30:17.643Z,4.17
2019-03-18T20:35:43.523Z,3.73
2019-03-18T20:39:19.797Z,3.87
2019-03-18T20:40:52.090Z,4.73
2019-03-18T20:43:26.485Z,4.10
2019-03-18T20:48:58.814Z,4.00
2019-03-18T20:58:45.862Z,3.98
2019-03-18T21:11:18.453Z,5.40
2019-03-18T21:13:56.797Z,4.72
2019-03-18T21:16:46.530Z,6.45
2019-03-18T21:19:19.286Z,5.70
2019-03-18T21:22:25.172Z,5.25
2019-03-18T21:24:55.824Z,4.17
2019-03-18T21:27:59.974Z,5.22
2019-03-18T21:30:37.920Z,6.50
2019-03-18T21:33:09.783Z,7.72
2019-03-18T21:35:39.911Z,4.62
2019-03-18T21:38:17.830Z,4.60
2019-03-18T21:40:51.306Z,4.55
2019-03-18T21:43:30.416Z,4.95
2019-03-18T21:46:44.437Z,5.00
2019-03-18T21:49:15.126Z,4.80
2019-03-18T21:51:46.607Z,5.08
2019-03-18T21:54:40.109Z,5.50
2019-03-18T21:57:10.509Z,4.80
2019-03-18T21:59:39.427Z,5.03
2019-03-18T22:02:15.735Z,4.80
2019-03-18T22:04:45.242Z,4.90
2019-03-18T22:07:59.343Z,4.33
2019-03-18T22:10:31.715Z,4.90
2019-03-18T22:13:00.755Z,4.37
2019-03-18T22:16:21.892Z,4.37
2019-03-18T22:18:53.193Z,5.08
2019-03-18T22:21:29.345Z,4.60
2019-03-18T22:24:07.188Z,4.92
2019-03-18T22:26:37.047Z,4.45
2019-03-18T22:29:41.187Z,4.40
2019-03-18T22:32:11.717Z,5.42
2019-03-18T22:34:42.625Z,3.75
2019-03-18T22:37:54.240Z,4.08
2019-03-18T22:40:24.258Z,4.25
2019-03-18T22:42:55.794Z,4.45
2019-03-18T22:45:29.539Z,5.03
2019-03-18T22:48:02.739Z,4.12
2019-03-18T22:50:35.244Z,3.98
2019-03-18T22:53:13.348Z,5.47
2019-03-18T22:55:45.959Z,4.70
2019-03-18T22:58:49.076Z,5.10
2019-03-18T23:01:19.554Z,4.30
2019-03-18T23:03:53.636Z,3.90
2019-03-18T23:07:12.995Z,4.15
2019-03-18T23:09:46.272Z,4.33
2019-03-18T23:13:05.381Z,4.35
2019-03-18T23:15:37.670Z,3.62
2019-03-18T23:18:06.857Z,4.65
2019-03-18T23:20:37.854Z,4.42
2019-03-18T23:23:10.207Z,3.98
2019-03-18T23:26:19.158Z,3.87
2019-03-18T23:28:50.833Z,4.20
2019-03-18T23:31:19.836Z,3.67
2019-03-18T23:34:41.475Z,4.10
2019-03-18T23:37:11.670Z,3.58
2019-03-18T23:39:40.573Z,4.10
2019-03-18T23:42:11.944Z,4.08
2019-03-18T23:44:41.937Z,3.62
2019-03-18T23:47:47.192Z,4.17
2019-03-18T23:50:16.739Z,4.00
2019-03-18T23:52:50.101Z,3.45
2019-03-18T23:55:20.091Z,3.67
2019-03-18T23:57:49.542Z,3.60
